createdAt,value
2018-11-02T00:01:21.409Z,17.76
2018-11-02T00:03:51.505Z,17.81
2018-11-02T00:06:21.668Z,17.84
2018-11-02T00:08:51.535Z,17.85
2018-11-02T00:11:21.854Z,17.87
2018-11-02T00:13:52.845Z,17.85
2018-11-02T00:16:23.219Z,17.79
2018-11-02T00:18:53.198Z,17.46
2018-11-02T00:21:22.961Z,17.09
2018-11-02T00:23:52.749Z,16.84
2018-11-02T00:26:22.570Z,16.58
2018-11-02T00:28:52.587Z,16.42
2018-11-02T00:31:22.985Z,16.30
2018-11-02T00:33:52.910Z,16.14
2018-11-02T00:36:22.833Z,15.95
2018-11-02T00:38:52.636Z,15.86
2018-11-02T00:41:22.572Z,15.70
2018-11-02T00:43:52.803Z,15.76
2018-11-02T00:46:22.914Z,15.74
2018-11-02T00:48:52.803Z,15.67
2018-11-02T00:51:22.716Z,15.61
2018-11-02T00:53:52.461Z,15.59
2018-11-02T00:56:22.569Z,15.62
2018-11-02T00:58:52.618Z,15.55
2018-11-02T01:01:22.489Z,15.53
2018-11-02T01:03:52.707Z,15.40
2018-11-02T01:06:22.586Z,15.37
2018-11-02T01:08:52.977Z,15.41
2018-11-02T01:11:22.952Z,15.29
2018-11-02T01:13:54.040Z,15.27
2018-11-02T01:16:23.959Z,15.23
2018-11-02T01:18:54.245Z,15.27
2018-11-02T01:21:24.090Z,15.26
2018-11-02T01:23:53.866Z,15.21
2018-11-02T01:26:23.741Z,15.19
2018-11-02T01:28:53.683Z,15.16
2018-11-02T01:31:24.048Z,15.17
2018-11-02T01:33:53.802Z,15.16
2018-11-02T01:36:24.437Z,15.14
2018-11-02T01:38:54.938Z,15.08
2018-11-02T01:41:26.448Z,15.15
2018-11-02T01:43:56.984Z,15.19
2018-11-02T01:46:28.657Z,15.15
2018-11-02T01:48:59.142Z,15.13
2018-11-02T01:51:30.154Z,15.01
2018-11-02T01:54:00.972Z,15.07
2018-11-02T01:57:34.892Z,14.96
2018-11-02T02:00:04.662Z,14.84
2018-11-02T02:02:35.061Z,14.86
2018-11-02T02:05:04.904Z,14.83
2018-11-02T02:07:34.753Z,14.76
2018-11-02T02:10:04.724Z,14.75
2018-11-02T02:12:34.549Z,14.74
2018-11-02T02:15:04.986Z,14.71
2018-11-02T02:17:35.340Z,14.67
2018-11-02T02:20:07.113Z,14.64
2018-11-02T02:22:37.287Z,14.61
2018-11-02T02:25:08.129Z,14.56
2018-11-02T02:27:38.322Z,14.52
2018-11-02T02:30:11.641Z,14.48
2018-11-02T02:32:41.489Z,14.42
2018-11-02T02:35:12.014Z,14.37
2018-11-02T02:37:42.195Z,14.31
2018-11-02T02:40:13.317Z,14.22
2018-11-02T02:42:43.891Z,14.18
2018-11-02T02:45:14.022Z,14.14
2018-11-02T02:47:43.846Z,14.14
2018-11-02T02:50:14.721Z,14.08
2018-11-02T02:52:45.210Z,14.06
2018-11-02T02:55:15.698Z,14.02
2018-11-02T02:57:45.655Z,13.99
2018-11-02T03:00:15.949Z,13.95
2018-11-02T03:02:45.793Z,13.91
2018-11-02T03:05:15.767Z,13.87
2018-11-02T03:07:45.765Z,13.84
2018-11-02T03:10:15.553Z,13.81
2018-11-02T03:12:45.529Z,13.80
2018-11-02T03:15:15.596Z,13.78
2018-11-02T03:17:45.442Z,13.81
2018-11-02T03:20:15.642Z,13.81
2018-11-02T03:22:45.558Z,13.80
2018-11-02T03:25:15.590Z,13.77
2018-11-02T03:27:45.653Z,13.75
2018-11-02T03:30:15.466Z,13.74
2018-11-02T03:32:45.649Z,13.69
2018-11-02T03:35:15.616Z,13.67
2018-11-02T03:37:45.518Z,13.65
2018-11-02T03:40:15.723Z,13.64
2018-11-02T03:42:45.541Z,13.63
2018-11-02T03:45:15.741Z,13.58
2018-11-02T03:47:45.519Z,13.55
2018-11-02T03:50:15.569Z,13.41
2018-11-02T03:52:45.489Z,13.44
2018-11-02T03:55:15.493Z,13.40
2018-11-02T03:57:45.682Z,13.35
2018-11-02T04:00:15.772Z,13.31
2018-11-02T04:02:45.878Z,13.26
2018-11-02T04:05:16.131Z,13.23
2018-11-02T04:07:46.374Z,13.17
2018-11-02T04:10:16.530Z,13.10
2018-11-02T04:12:46.472Z,13.06
2018-11-02T04:15:16.479Z,12.99
2018-11-02T04:17:46.685Z,12.87
2018-11-02T04:20:20.592Z,12.91
2018-11-02T04:22:50.572Z,12.85
2018-11-02T04:25:20.516Z,12.81
2018-11-02T04:27:50.496Z,12.76
2018-11-02T04:30:20.481Z,12.71
2018-11-02T04:32:50.549Z,12.66
2018-11-02T04:35:20.524Z,12.62
2018-11-02T04:40:13.250Z,12.56
2018-11-02T04:42:43.170Z,12.49
2018-11-02T04:45:13.300Z,12.44
2018-11-02T04:47:43.152Z,12.40
2018-11-02T04:50:13.405Z,12.36
2018-11-02T04:52:43.876Z,12.32
2018-11-02T04:55:13.831Z,12.25
2018-11-02T04:57:44.687Z,12.22
2018-11-02T05:00:15.117Z,12.17
2018-11-02T05:02:46.149Z,12.21
2018-11-02T05:05:16.959Z,12.19
2018-11-02T05:07:48.318Z,12.16
2018-11-02T05:10:19.024Z,12.00
2018-11-02T05:12:50.983Z,11.94
2018-11-02T05:15:21.263Z,11.91
2018-11-02T05:17:52.113Z,11.87
2018-11-02T05:20:23.259Z,11.84
2018-11-02T05:22:54.242Z,11.80
2018-11-02T05:25:24.948Z,11.76
2018-11-02T05:27:56.586Z,11.72
2018-11-02T05:31:30.002Z,11.67
2018-11-02T05:33:59.833Z,11.57
2018-11-02T05:36:29.691Z,11.53
2018-11-02T05:38:59.558Z,11.50
2018-11-02T05:41:29.525Z,11.44
2018-11-02T05:43:59.607Z,11.46
2018-11-02T05:46:29.574Z,11.44
2018-11-02T05:48:59.478Z,11.43
2018-11-02T05:51:29.646Z,11.40
2018-11-02T05:53:59.485Z,11.39
2018-11-02T05:56:29.929Z,11.38
2018-11-02T05:58:59.775Z,11.37
2018-11-02T06:01:29.738Z,11.37
2018-11-02T06:03:59.884Z,11.35
2018-11-02T06:06:29.608Z,11.34
2018-11-02T06:08:59.538Z,11.31
2018-11-02T06:11:29.554Z,11.27
2018-11-02T06:13:59.467Z,11.25
2018-11-02T06:16:29.625Z,11.22
2018-11-02T06:18:59.408Z,11.23
2018-11-02T06:21:29.526Z,11.23
2018-11-02T06:24:02.837Z,11.10
2018-11-02T06:26:32.754Z,11.19
2018-11-02T06:29:02.577Z,11.20
2018-11-02T06:31:32.559Z,11.20
2018-11-02T06:34:02.589Z,11.20
2018-11-02T06:36:32.709Z,11.22
2018-11-02T06:39:02.616Z,11.23
2018-11-02T06:41:32.881Z,11.27
2018-11-02T06:44:02.694Z,11.29
2018-11-02T06:46:32.650Z,11.34
2018-11-02T06:49:02.539Z,11.38
2018-11-02T06:51:32.521Z,11.43
2018-11-02T06:54:02.681Z,11.48
2018-11-02T06:56:32.572Z,11.55
2018-11-02T06:59:02.564Z,11.61
2018-11-02T07:01:32.504Z,11.69
2018-11-02T07:04:02.550Z,11.76
2018-11-02T07:06:32.530Z,11.75
2018-11-02T07:09:02.645Z,11.93
2018-11-02T07:11:32.529Z,12.03
2018-11-02T07:14:02.559Z,12.14
2018-11-02T07:16:32.449Z,12.27
2018-11-02T07:19:02.760Z,12.39
2018-11-02T07:21:32.541Z,12.51
2018-11-02T07:24:02.576Z,12.61
2018-11-02T07:26:32.629Z,12.74
2018-11-02T07:29:02.476Z,12.87
2018-11-02T07:31:32.546Z,12.96
2018-11-02T07:34:02.403Z,13.09
2018-11-02T07:36:32.401Z,13.21
2018-11-02T07:39:17.936Z,13.33
2018-11-02T07:41:47.783Z,13.48
2018-11-02T07:44:17.929Z,13.62
2018-11-02T07:46:54.610Z,13.76
2018-11-02T07:49:24.693Z,13.91
2018-11-02T07:51:54.589Z,14.06
2018-11-02T07:54:24.577Z,14.22
2018-11-02T07:56:54.490Z,14.37
2018-11-02T07:59:24.562Z,14.53
2018-11-02T08:01:54.528Z,14.62
2018-11-02T08:04:24.557Z,14.77
2018-11-02T08:06:55.070Z,14.97
2018-11-02T08:09:24.891Z,15.13
2018-11-02T08:11:54.935Z,15.27
2018-11-02T08:14:24.826Z,15.41
2018-11-02T08:16:54.520Z,15.56
2018-11-02T08:19:24.441Z,15.67
2018-11-02T08:21:54.564Z,15.80
2018-11-02T08:24:24.524Z,15.93
2018-11-02T08:26:55.377Z,16.03
2018-11-02T08:29:25.421Z,16.12
2018-11-02T08:31:55.985Z,16.18
2018-11-02T08:34:26.185Z,16.27
2018-11-02T08:36:56.341Z,16.31
2018-11-02T08:39:26.222Z,16.36
2018-11-02T08:41:56.193Z,16.40
2018-11-02T08:44:25.991Z,16.47
2018-11-02T08:46:55.601Z,16.52
2018-11-02T08:49:25.497Z,16.59
2018-11-02T08:51:55.732Z,16.67
2018-11-02T08:54:25.545Z,16.72
2018-11-02T08:56:55.880Z,16.80
2018-11-02T08:59:29.525Z,16.87
2018-11-02T09:01:59.775Z,16.88
2018-11-02T09:04:29.531Z,16.89
2018-11-02T09:06:59.672Z,17.03
2018-11-02T09:09:29.464Z,17.07
2018-11-02T09:11:59.979Z,17.07
2018-11-02T09:14:29.796Z,17.10
2018-11-02T09:16:59.664Z,17.15
2018-11-02T09:19:29.572Z,17.21
2018-11-02T09:22:00.017Z,17.25
2018-11-02T09:24:29.807Z,17.26
2018-11-02T09:27:00.336Z,17.25
2018-11-02T09:29:31.052Z,17.22
2018-11-02T09:32:02.055Z,17.15
2018-11-02T09:34:32.916Z,17.14
2018-11-02T09:37:04.420Z,17.15
2018-11-02T09:39:35.026Z,17.19
2018-11-02T09:42:06.357Z,17.19
2018-11-02T09:44:37.153Z,17.20
2018-11-02T09:47:08.443Z,17.26
2018-11-02T09:49:39.155Z,17.36
2018-11-02T09:52:10.162Z,17.46
2018-11-02T09:54:40.965Z,17.51
2018-11-02T09:57:12.444Z,17.62
2018-11-02T09:59:42.983Z,17.62
2018-11-02T10:02:14.911Z,17.64
2018-11-02T10:04:45.160Z,17.62
2018-11-02T10:07:16.093Z,17.62
2018-11-02T10:09:46.914Z,17.58
2018-11-02T10:12:18.314Z,17.74
2018-11-02T10:14:48.925Z,17.82
2018-11-02T10:17:20.552Z,17.86
2018-11-02T10:19:51.014Z,17.84
2018-11-02T10:22:22.048Z,17.72
2018-11-02T10:24:53.209Z,17.68
2018-11-02T10:27:24.251Z,17.82
2018-11-02T10:29:55.007Z,17.88
2018-11-02T10:32:26.216Z,17.91
2018-11-02T10:34:57.235Z,17.95
2018-11-02T10:37:28.090Z,18.08
2018-11-02T10:39:59.165Z,18.28
2018-11-02T10:42:30.229Z,18.46
2018-11-02T10:45:01.321Z,18.46
2018-11-02T10:47:32.444Z,18.59
2018-11-02T10:50:02.992Z,18.79
2018-11-02T10:52:34.014Z,18.92
2018-11-02T10:55:05.456Z,19.09
2018-11-02T10:57:36.128Z,19.18
2018-11-02T11:00:14.036Z,19.32
2018-11-02T11:02:51.628Z,19.52
2018-11-02T11:05:22.140Z,19.66
2018-11-02T11:07:52.265Z,19.80
2018-11-02T11:10:22.115Z,19.94
2018-11-02T11:12:52.136Z,20.03
2018-11-02T11:15:22.058Z,20.03
2018-11-02T11:17:51.846Z,20.15
2018-11-02T11:20:21.830Z,20.11
2018-11-02T11:22:51.704Z,20.06
2018-11-02T11:25:21.605Z,20.12
2018-11-02T11:27:51.534Z,20.16
2018-11-02T11:30:22.078Z,20.23
2018-11-02T11:32:52.954Z,20.37
2018-11-02T11:35:23.283Z,20.44
2018-11-02T11:37:53.109Z,20.56
2018-11-02T11:40:23.611Z,20.58
2018-11-02T11:42:54.166Z,20.70
2018-11-02T11:45:25.799Z,20.76
2018-11-02T11:47:56.377Z,20.75
2018-11-02T11:50:27.102Z,20.75
2018-11-02T11:52:58.319Z,20.84
2018-11-02T11:55:29.058Z,20.93
2018-11-02T11:58:00.021Z,20.97
2018-11-02T12:00:31.017Z,20.93
2018-11-02T12:03:02.258Z,20.89
2018-11-02T12:05:33.186Z,21.05
2018-11-02T12:08:04.025Z,21.20
2018-11-02T12:10:35.116Z,21.16
2018-11-02T12:13:06.210Z,21.23
2018-11-02T12:15:37.503Z,21.27
2018-11-02T12:18:08.159Z,21.34
2018-11-02T12:20:39.130Z,21.33
2018-11-02T12:23:09.942Z,21.34
2018-11-02T12:25:41.399Z,21.47
2018-11-02T12:28:11.247Z,21.50
2018-11-02T12:30:42.053Z,21.58
2018-11-02T12:33:13.015Z,21.36
2018-11-02T12:35:43.981Z,21.28
2018-11-02T12:38:15.358Z,21.31
2018-11-02T12:40:45.922Z,21.55
2018-11-02T12:43:17.497Z,21.70
2018-11-02T12:45:48.152Z,21.72
2018-11-02T12:48:19.069Z,21.73
2018-11-02T12:50:49.873Z,21.74
2018-11-02T12:53:21.248Z,21.82
2018-11-02T12:55:52.043Z,21.85
2018-11-02T12:58:23.581Z,21.65
2018-11-02T13:00:54.276Z,21.40
2018-11-02T13:03:25.192Z,21.56
2018-11-02T13:05:56.014Z,21.60
2018-11-02T13:08:27.519Z,21.51
2018-11-02T13:10:57.976Z,21.45
2018-11-02T13:13:29.604Z,21.17
2018-11-02T13:16:00.178Z,21.31
2018-11-02T13:18:31.358Z,21.27
2018-11-02T13:21:02.062Z,21.31
2018-11-02T13:23:33.109Z,21.46
2018-11-02T13:26:04.147Z,21.55
2018-11-02T13:28:35.221Z,21.57
2018-11-02T13:31:06.080Z,21.64
2018-11-02T13:33:37.018Z,21.70
2018-11-02T13:36:08.376Z,21.67
2018-11-02T13:38:39.067Z,21.39
2018-11-02T13:41:09.987Z,21.40
2018-11-02T13:43:41.054Z,21.39
2018-11-02T13:46:12.080Z,21.23
2018-11-02T13:48:43.103Z,21.06
2018-11-02T13:51:14.047Z,21.01
2018-11-02T13:53:45.463Z,20.94
2018-11-02T13:56:16.069Z,20.69
2018-11-02T13:58:48.493Z,20.64
2018-11-02T14:01:18.542Z,20.59
2018-11-02T14:03:49.326Z,20.52
2018-11-02T14:06:20.097Z,20.43
2018-11-02T14:08:51.101Z,20.38
2018-11-02T14:11:22.440Z,20.31
2018-11-02T14:13:53.205Z,20.23
2018-11-02T14:16:24.096Z,20.16
2018-11-02T14:18:55.471Z,20.09
2018-11-02T14:21:26.075Z,20.05
2018-11-02T14:23:57.063Z,19.99
2018-11-02T14:26:27.965Z,19.93
2018-11-02T14:28:59.422Z,19.87
2018-11-02T14:31:29.956Z,19.83
2018-11-02T14:34:01.584Z,19.75
2018-11-02T14:36:32.058Z,19.69
2018-11-02T14:39:03.458Z,19.62
2018-11-02T14:41:34.057Z,19.51
2018-11-02T14:44:05.162Z,19.41
2018-11-02T14:46:36.428Z,19.35
2018-11-02T14:49:07.609Z,19.28
2018-11-02T14:51:38.110Z,19.25
2018-11-02T14:54:09.188Z,19.16
2018-11-02T14:56:40.063Z,19.09
2018-11-02T14:59:11.479Z,19.01
2018-11-02T15:01:42.019Z,18.94
2018-11-02T15:04:13.397Z,18.86
2018-11-02T15:06:43.997Z,18.81
2018-11-02T15:09:15.466Z,18.75
2018-11-02T15:11:46.077Z,18.66
2018-11-02T15:14:17.412Z,18.55
2018-11-02T15:16:47.933Z,18.48
2018-11-02T15:19:19.701Z,18.43
2018-11-02T15:21:50.228Z,18.37
2018-11-02T15:24:21.076Z,18.30
2018-11-02T15:26:52.347Z,18.24
2018-11-02T15:29:23.079Z,18.17
2018-11-02T15:31:53.982Z,18.08
2018-11-02T15:34:25.088Z,18.00
2018-11-02T15:36:56.288Z,17.91
2018-11-02T15:39:27.399Z,17.82
2018-11-02T15:41:58.148Z,17.75
2018-11-02T15:44:29.200Z,17.53
2018-11-02T15:47:00.062Z,17.56
2018-11-02T15:49:31.528Z,17.48
2018-11-02T15:52:02.047Z,17.37
2018-11-02T15:54:33.548Z,17.30
2018-11-02T15:57:04.359Z,17.22
2018-11-02T15:59:35.255Z,17.15
2018-11-02T16:02:06.288Z,17.07
2018-11-02T16:04:37.197Z,17.01
2018-11-02T16:07:08.125Z,16.93
2018-11-02T16:09:39.074Z,16.86
2018-11-02T16:12:10.356Z,16.80
2018-11-02T16:14:41.277Z,16.74
2018-11-02T16:17:12.012Z,16.67
2018-11-02T16:19:43.490Z,16.62
2018-11-02T16:22:14.037Z,16.59
2018-11-02T16:24:45.285Z,16.56
2018-11-02T16:27:15.996Z,16.51
2018-11-02T16:29:47.329Z,16.45
2018-11-02T16:32:17.959Z,16.40
2018-11-02T16:34:49.508Z,16.36
2018-11-02T16:37:20.479Z,16.30
2018-11-02T16:39:51.205Z,16.25
2018-11-02T16:42:21.979Z,16.18
2018-11-02T16:44:53.574Z,16.11
2018-11-02T16:47:24.373Z,16.04
2018-11-02T16:49:54.996Z,15.95
2018-11-02T16:52:26.032Z,15.91
2018-11-02T16:54:57.468Z,15.85
2018-11-02T16:57:27.934Z,15.82
2018-11-02T16:59:59.350Z,15.78
2018-11-02T17:02:30.498Z,15.75
2018-11-02T17:05:01.482Z,15.71
2018-11-02T17:07:32.339Z,15.69
2018-11-02T17:10:03.025Z,15.63
2018-11-02T17:12:35.246Z,15.61
2018-11-02T17:15:12.534Z,15.55
2018-11-02T17:17:42.572Z,15.51
2018-11-02T17:20:15.543Z,15.49
2018-11-02T17:22:46.182Z,15.43
2018-11-02T17:25:16.075Z,15.40
2018-11-02T17:27:45.887Z,15.34
2018-11-02T17:30:17.091Z,15.29
2018-11-02T17:32:46.951Z,15.38
2018-11-02T17:35:16.843Z,15.78
2018-11-02T17:37:46.836Z,16.04
2018-11-02T17:40:17.267Z,16.27
2018-11-02T17:42:47.104Z,16.43
2018-11-02T17:45:16.989Z,16.55
2018-11-02T17:47:48.586Z,16.63
2018-11-02T17:50:19.154Z,16.94
2018-11-02T17:52:50.133Z,17.12
2018-11-02T17:55:20.997Z,16.80
2018-11-02T17:57:52.569Z,16.36
2018-11-02T18:00:23.090Z,16.07
2018-11-02T18:02:54.480Z,15.85
2018-11-02T18:05:25.460Z,15.66
2018-11-02T18:07:57.021Z,15.54
2018-11-02T18:10:26.937Z,15.52
2018-11-02T18:12:58.445Z,16.06
2018-11-02T18:15:29.081Z,16.16
2018-11-02T18:18:00.054Z,15.92
2018-11-02T18:20:31.342Z,15.69
2018-11-02T18:23:02.123Z,15.51
2018-11-02T18:25:36.836Z,15.35
2018-11-02T18:28:07.097Z,15.22
2018-11-02T18:30:37.152Z,15.10
2018-11-02T18:33:07.103Z,14.96
2018-11-02T18:35:37.394Z,14.88
2018-11-02T18:38:08.060Z,14.80
2018-11-02T18:40:39.426Z,14.74
2018-11-02T18:43:10.103Z,14.70
2018-11-02T18:45:41.226Z,14.62
2018-11-02T18:48:12.265Z,14.54
2018-11-02T18:50:43.960Z,14.49
2018-11-02T18:53:13.818Z,14.45
2018-11-02T18:55:45.416Z,14.88
2018-11-02T18:58:16.046Z,15.40
2018-11-02T19:00:48.060Z,15.78
2018-11-02T19:03:19.029Z,15.59
2018-11-02T19:05:49.354Z,15.30
2018-11-02T19:08:20.257Z,15.06
2018-11-02T19:10:51.876Z,14.88
2018-11-02T19:13:22.652Z,14.73
2018-11-02T19:15:54.076Z,14.59
2018-11-02T19:18:24.860Z,14.49
2018-11-02T19:20:56.716Z,14.40
2018-11-02T19:23:27.827Z,14.33
2018-11-02T19:25:59.152Z,14.29
2018-11-02T19:28:31.179Z,14.26
2018-11-02T19:31:03.462Z,14.21
2018-11-02T19:33:35.831Z,14.18
2018-11-02T19:36:07.248Z,14.17
2018-11-02T19:38:38.554Z,14.13
2018-11-02T19:41:10.670Z,14.10
2018-11-02T19:43:41.521Z,14.07
2018-11-02T19:46:14.351Z,14.04
2018-11-02T19:48:47.332Z,14.01
2018-11-02T19:51:18.684Z,13.99
2018-11-02T19:53:50.531Z,13.95
2018-11-02T19:56:21.484Z,13.90
2018-11-02T19:58:53.651Z,13.86
2018-11-02T20:01:25.093Z,13.81
2018-11-02T20:03:56.062Z,13.76
2018-11-02T20:06:28.959Z,13.72
2018-11-02T20:09:02.617Z,13.69
2018-11-02T20:11:33.634Z,13.65
2018-11-02T20:14:05.274Z,13.62
2018-11-02T20:16:36.933Z,13.56
2018-11-02T20:19:08.364Z,13.54
2018-11-02T20:21:39.916Z,13.48
2018-11-02T20:24:11.308Z,13.46
2018-11-02T20:26:43.247Z,13.42
2018-11-02T20:29:15.319Z,13.39
2018-11-02T20:31:46.652Z,13.37
2018-11-02T20:34:19.974Z,13.36
2018-11-02T20:36:53.121Z,13.35
2018-11-02T20:39:24.960Z,13.34
2018-11-02T20:41:56.434Z,13.33
2018-11-02T20:44:28.180Z,13.32
2018-11-02T20:46:59.460Z,13.24
2018-11-02T20:49:31.201Z,13.21
2018-11-02T20:52:02.340Z,13.13
2018-11-02T20:54:34.630Z,13.21
2018-11-02T20:57:05.600Z,13.22
2018-11-02T20:59:36.996Z,13.24
2018-11-02T21:02:08.279Z,13.25
2018-11-02T21:04:40.454Z,13.28
2018-11-02T21:07:12.491Z,13.27
2018-11-02T21:09:43.390Z,13.26
2018-11-02T21:12:14.340Z,13.28
2018-11-02T21:14:45.314Z,13.28
2018-11-02T21:17:16.200Z,13.27
2018-11-02T21:19:46.700Z,13.29
2018-11-02T21:22:17.288Z,13.28
2018-11-02T21:24:48.000Z,13.27
2018-11-02T21:27:18.434Z,13.27
2018-11-02T21:29:48.929Z,13.25
2018-11-02T21:32:18.864Z,13.25
2018-11-02T21:34:48.822Z,13.24
2018-11-02T21:37:18.878Z,13.24
2018-11-02T21:39:48.954Z,13.26
2018-11-02T21:42:25.973Z,13.24
2018-11-02T21:44:56.161Z,13.22
2018-11-02T21:47:26.758Z,13.22
2018-11-02T21:49:57.057Z,13.20
2018-11-02T21:52:27.107Z,13.17
2018-11-02T21:54:57.344Z,13.15
2018-11-02T21:57:27.725Z,13.13
2018-11-02T21:59:57.802Z,13.12
2018-11-02T22:02:27.728Z,13.11
2018-11-02T22:04:57.728Z,13.06
2018-11-02T22:07:27.748Z,12.98
2018-11-02T22:09:57.708Z,12.93
2018-11-02T22:12:27.539Z,12.89
2018-11-02T22:14:57.509Z,12.79
2018-11-02T22:17:27.476Z,12.89
2018-11-02T22:19:57.688Z,13.29
2018-11-02T22:22:27.857Z,13.89
2018-11-02T22:24:58.225Z,14.30
2018-11-02T22:27:28.590Z,14.59
2018-11-02T22:29:58.819Z,14.83
2018-11-02T22:32:28.616Z,15.07
2018-11-02T22:34:58.862Z,15.24
2018-11-02T22:37:29.287Z,15.35
2018-11-02T22:39:59.411Z,15.45
2018-11-02T22:42:29.377Z,15.52
2018-11-02T22:44:59.580Z,15.61
2018-11-02T22:47:29.666Z,15.72
2018-11-02T22:49:59.841Z,15.82
2018-11-02T22:52:30.058Z,15.89
2018-11-02T22:54:59.802Z,15.91
2018-11-02T22:57:29.988Z,15.94
2018-11-02T22:59:59.887Z,16.00
2018-11-02T23:02:29.810Z,16.09
2018-11-02T23:04:59.975Z,16.18
2018-11-02T23:07:29.788Z,16.30
2018-11-02T23:10:00.441Z,16.37
2018-11-02T23:12:31.257Z,16.41
2018-11-02T23:15:01.098Z,16.39
2018-11-02T23:17:31.184Z,16.35
2018-11-02T23:20:01.236Z,16.31
2018-11-02T23:22:31.388Z,16.31
2018-11-02T23:25:01.552Z,16.31
2018-11-02T23:27:32.312Z,16.33
2018-11-02T23:30:03.294Z,15.88
2018-11-02T23:32:34.440Z,15.50
2018-11-02T23:35:05.785Z,15.18
2018-11-02T23:37:36.688Z,14.97
2018-11-02T23:40:08.531Z,14.78
2018-11-02T23:42:38.634Z,14.65
2018-11-02T23:45:10.852Z,14.51
2018-11-02T23:47:44.957Z,14.39
2018-11-02T23:50:15.034Z,14.30
2018-11-02T23:52:44.891Z,14.24
2018-11-02T23:55:15.421Z,14.17
2018-11-02T23:57:45.752Z,14.07
